Time;durP1;ratioP1;P1;durP2;ratioP2;P2;SDS_P1;SDS_P2;PMS_P1;PMS_P2;Temp;Humidity;BMP_temperature;BMP_pressure;BME280_temperature;BME280_humidity;BME280_pressure;Samples;Min_cycle;Max_cycle;Signal;HPM_P1;HPM_P2
2022/03/08 00:02:09;;;;;;;;;;;;;;;;;;5005270;28;20339;-63
2022/03/08 00:04:35;;;;;;;;;;;;;;;;;;4988861;28;19926;-64
2022/03/08 00:07:02;;;;;;;;;;;;;;;;;;4986909;28;19925;-63
2022/03/08 00:09:28;;;;;;;;;;;;;;;;;;4993091;28;19926;-64
2022/03/08 00:11:53;;;;;;;;;;;;;;;;;;5004997;28;19929;-64
2022/03/08 00:14:19;;;;;;;;;;;;;;;;;;5004669;28;19971;-64
2022/03/08 00:16:45;;;;;;;;;;;;;;;;;;5005415;28;19926;-63
2022/03/08 00:19:11;;;;;;;;;;;;;;;;;;4996968;28;20459;-64
2022/03/08 00:21:38;;;;;;;;;;;;;;;;;;5005272;28;19937;-63
2022/03/08 00:24:04;;;;;;;;;;;;;;;;;;4987071;28;19980;-64
2022/03/08 00:26:30;;;;;;;;;;;;;;;;;;5005256;28;19965;-64
2022/03/08 00:28:56;;;;;;;;;;;;;;;;;;4998267;28;20291;-64
2022/03/08 00:31:22;;;;;;;;;;;;;;;;;;4986715;28;19926;-63
2022/03/08 00:33:48;;;;;;;;;;;;;;;;;;4988217;28;19925;-63
2022/03/08 00:36:14;;;;;;;;;;;;;;;;;;4996954;28;19976;-63
2022/03/08 00:38:40;;;;;;;;;;;;;;;;;;4996845;28;20342;-63
2022/03/08 00:41:06;;;;;;;;;;;;;;;;;;5004434;28;19929;-63
2022/03/08 00:43:32;;;;;;;;;;;;;;;;;;4987969;28;19984;-63
2022/03/08 00:45:58;;;;;;;;;;;;;;;;;;4971173;28;19925;-63
2022/03/08 00:48:24;;;;;;;;;;;;;;;;;;4999139;28;20375;-63
2022/03/08 00:50:50;;;;;;;;;;;;;;;;;;4998534;28;19933;-63
2022/03/08 00:53:16;;;;;;;;;;;;;;;;;;4986448;28;20447;-62
2022/03/08 00:55:42;;;;;;;;;;;;;;;;;;4986329;28;19984;-64
2022/03/08 00:58:08;;;;;;;;;;;;;;;;;;4991149;28;19973;-64
2022/03/08 01:00:34;;;;;;;;;;;;;;;;;;5004006;28;20022;-65
2022/03/08 01:03:00;;;;;;;;;;;;;;;;;;5006821;28;20297;-64
2022/03/08 01:05:26;;;;;;;;;;;;;;;;;;4987372;28;19925;-65
2022/03/08 01:07:52;;;;;;;;;;;;;;;;;;4999768;28;19926;-65
2022/03/08 01:10:18;;;;;;;;;;;;;;;;;;4986105;28;20288;-65
2022/03/08 01:12:44;;;;;;;;;;;;;;;;;;4986774;28;19930;-65
2022/03/08 01:15:10;;;;;;;;;;;;;;;;;;4986547;28;19926;-65
2022/03/08 01:17:36;;;;;;;;;;;;;;;;;;5004143;28;19965;-66
2022/03/08 01:20:02;;;;;;;;;;;;;;;;;;5006929;28;20012;-65
2022/03/08 01:22:28;;;;;;;;;;;;;;;;;;5008510;28;20268;-65
2022/03/08 01:24:54;;;;;;;;;;;;;;;;;;5007180;28;20383;-65
2022/03/08 01:27:20;;;;;;;;;;;;;;;;;;5005324;28;20335;-66
2022/03/08 01:29:46;;;;;;;;;;;;;;;;;;5007488;28;20375;-66
2022/03/08 01:32:12;;;;;;;;;;;;;;;;;;5007381;28;20004;-65
2022/03/08 01:34:38;;;;;;;;;;;;;;;;;;5008241;28;20398;-65
2022/03/08 01:37:04;;;;;;;;;;;;;;;;;;4990215;28;19980;-65
2022/03/08 01:39:30;;;;;;;;;;;;;;;;;;5002946;28;19988;-65
2022/03/08 01:41:56;;;;;;;;;;;;;;;;;;4989506;28;19925;-65
2022/03/08 01:44:22;;;;;;;;;;;;;;;;;;4989170;28;19984;-65
2022/03/08 01:46:48;;;;;;;;;;;;;;;;;;5007328;28;20387;-66
2022/03/08 01:49:14;;;;;;;;;;;;;;;;;;5007821;28;19930;-65
2022/03/08 01:51:42;;;;;;;;;;;;;;;;;;5007952;28;19925;-65
2022/03/08 01:54:08;;;;;;;;;;;;;;;;;;5007861;28;19925;-66
2022/03/08 01:56:34;;;;;;;;;;;;;;;;;;4990305;28;20276;-65
2022/03/08 01:59:00;;;;;;;;;;;;;;;;;;4989067;28;19925;-65
2022/03/08 02:01:26;;;;;;;;;;;;;;;;;;4988780;28;19926;-64
2022/03/08 02:03:52;;;;;;;;;;;;;;;;;;5003870;28;19925;-65
2022/03/08 02:06:18;;;;;;;;;;;;;;;;;;4999258;28;19933;-64
2022/03/08 02:08:44;;;;;;;;;;;;;;;;;;5007834;28;20016;-65
2022/03/08 02:11:10;;;;;;;;;;;;;;;;;;4996942;28;20009;-65
2022/03/08 02:13:38;;;;;;;;;;;;;;;;;;4988416;28;20272;-65
2022/03/08 02:16:04;;;;;;;;;;;;;;;;;;5005536;28;19929;-64
2022/03/08 02:18:30;;;;;;;;;;;;;;;;;;5007351;28;19932;-64
2022/03/08 02:20:56;;;;;;;;;;;;;;;;;;5007127;28;19988;-64
2022/03/08 02:23:22;;;;;;;;;;;;;;;;;;5007383;28;20028;-64
2022/03/08 02:25:48;;;;;;;;;;;;;;;;;;4973583;28;19926;-64
2022/03/08 02:28:14;;;;;;;;;;;;;;;;;;4988953;28;20005;-64
2022/03/08 02:30:40;;;;;;;;;;;;;;;;;;4988740;28;19926;-64
2022/03/08 02:33:06;;;;;;;;;;;;;;;;;;4997743;28;19933;-64
2022/03/08 02:35:32;;;;;;;;;;;;;;;;;;4995444;28;19988;-64
2022/03/08 02:37:58;;;;;;;;;;;;;;;;;;5006973;28;19948;-64
2022/03/08 02:40:24;;;;;;;;;;;;;;;;;;5007270;28;20499;-63
2022/03/08 02:42:50;;;;;;;;;;;;;;;;;;5007217;28;19933;-64
2022/03/08 02:45:16;;;;;;;;;;;;;;;;;;4973238;28;19925;-64
2022/03/08 02:47:42;;;;;;;;;;;;;;;;;;4989758;28;19930;-64
2022/03/08 02:50:08;;;;;;;;;;;;;;;;;;4988177;28;20392;-64
2022/03/08 02:52:34;;;;;;;;;;;;;;;;;;4988701;28;20490;-63
2022/03/08 02:55:00;;;;;;;;;;;;;;;;;;5003530;28;19933;-63
2022/03/08 02:57:26;;;;;;;;;;;;;;;;;;5005887;28;19926;-63
2022/03/08 02:59:52;;;;;;;;;;;;;;;;;;5005727;28;19929;-63
2022/03/08 03:02:18;;;;;;;;;;;;;;;;;;5006412;28;19925;-64
2022/03/08 03:04:46;;;;;;;;;;;;;;;;;;5004776;28;19948;-64
2022/03/08 03:07:11;;;;;;;;;;;;;;;;;;5006620;28;20016;-64
2022/03/08 03:09:37;;;;;;;;;;;;;;;;;;4989488;28;20004;-64
2022/03/08 03:12:03;;;;;;;;;;;;;;;;;;5006192;28;20350;-64
2022/03/08 03:14:29;;;;;;;;;;;;;;;;;;4991200;28;20436;-64
2022/03/08 03:16:55;;;;;;;;;;;;;;;;;;5006059;28;19926;-64
2022/03/08 03:19:22;;;;;;;;;;;;;;;;;;5006056;28;19926;-64
2022/03/08 03:21:47;;;;;;;;;;;;;;;;;;4998625;28;19926;-64
2022/03/08 03:24:14;;;;;;;;;;;;;;;;;;4970858;28;20475;-64
2022/03/08 03:26:40;;;;;;;;;;;;;;;;;;5005917;28;19926;-64
2022/03/08 03:29:06;;;;;;;;;;;;;;;;;;5005332;28;20302;-64
2022/03/08 03:31:32;;;;;;;;;;;;;;;;;;5006561;28;20375;-64
2022/03/08 03:33:58;;;;;;;;;;;;;;;;;;5001637;28;20346;-64
2022/03/08 03:36:24;;;;;;;;;;;;;;;;;;5006117;28;20417;-64
2022/03/08 03:38:50;;;;;;;;;;;;;;;;;;5001612;28;19926;-64
2022/03/08 03:41:16;;;;;;;;;;;;;;;;;;4987406;28;19925;-64
2022/03/08 03:43:42;;;;;;;;;;;;;;;;;;4999622;28;20371;-64
2022/03/08 03:46:08;;;;;;;;;;;;;;;;;;5005467;28;19941;-64
2022/03/08 03:48:34;;;;;;;;;;;;;;;;;;5005597;28;19932;-64
2022/03/08 03:51:00;;;;;;;;;;;;;;;;;;5006386;28;19981;-64
2022/03/08 03:53:26;;;;;;;;;;;;;;;;;;4974244;28;19976;-64
2022/03/08 03:55:52;;;;;;;;;;;;;;;;;;4987366;28;20039;-64
2022/03/08 03:58:18;;;;;;;;;;;;;;;;;;4986331;28;20435;-63
2022/03/08 04:00:44;;;;;;;;;;;;;;;;;;4987431;28;19940;-64
2022/03/08 04:03:11;;;;;;;;;;;;;;;;;;4999581;28;20012;-64
2022/03/08 04:05:37;;;;;;;;;;;;;;;;;;5005890;28;20752;-64
2022/03/08 04:08:03;;;;;;;;;;;;;;;;;;4987836;28;19925;-64
2022/03/08 04:10:29;;;;;;;;;;;;;;;;;;5005890;28;19925;-64
2022/03/08 04:12:55;;;;;;;;;;;;;;;;;;4975013;28;19948;-64
2022/03/08 04:15:21;;;;;;;;;;;;;;;;;;4986415;28;19948;-65
2022/03/08 04:17:47;;;;;;;;;;;;;;;;;;4986723;28;20471;-64
2022/03/08 04:20:13;;;;;;;;;;;;;;;;;;4986832;28;19929;-64
2022/03/08 04:22:39;;;;;;;;;;;;;;;;;;4998764;28;20383;-65
2022/03/08 04:25:05;;;;;;;;;;;;;;;;;;4987624;28;19930;-65
2022/03/08 04:27:31;;;;;;;;;;;;;;;;;;5005551;28;19932;-64
2022/03/08 04:29:57;;;;;;;;;;;;;;;;;;5003625;28;19921;-65
2022/03/08 04:32:23;;;;;;;;;;;;;;;;;;4992827;28;19936;-65
2022/03/08 04:34:49;;;;;;;;;;;;;;;;;;4986965;28;19926;-64
2022/03/08 04:37:15;;;;;;;;;;;;;;;;;;4986558;28;20012;-64
2022/03/08 04:39:41;;;;;;;;;;;;;;;;;;4995045;28;19972;-64
2022/03/08 04:42:07;;;;;;;;;;;;;;;;;;4975903;28;19949;-64
2022/03/08 04:44:33;;;;;;;;;;;;;;;;;;5000323;28;19929;-65
2022/03/08 04:46:59;;;;;;;;;;;;;;;;;;5004802;28;19926;-64
2022/03/08 04:49:25;;;;;;;;;;;;;;;;;;4975227;28;20375;-65
2022/03/08 04:51:51;;;;;;;;;;;;;;;;;;4994295;28;20387;-64
2022/03/08 04:54:17;;;;;;;;;;;;;;;;;;4986199;28;19922;-64
2022/03/08 04:56:43;;;;;;;;;;;;;;;;;;4986511;28;20300;-65
2022/03/08 04:59:09;;;;;;;;;;;;;;;;;;4985418;28;19926;-64
2022/03/08 05:01:35;;;;;;;;;;;;;;;;;;4972998;28;20455;-65
2022/03/08 05:04:01;;;;;;;;;;;;;;;;;;5004592;28;19925;-65
2022/03/08 05:06:30;;;;;;;;;;;;;;;;;;5004898;28;20287;-65
2022/03/08 05:08:56;;;;;;;;;;;;;;;;;;5004111;28;19929;-65
2022/03/08 05:11:22;;;;;;;;;;;;;;;;;;4994574;28;19926;-65
2022/03/08 05:13:48;;;;;;;;;;;;;;;;;;4985510;28;19932;-65
2022/03/08 05:16:14;;;;;;;;;;;;;;;;;;4987393;28;19936;-65
2022/03/08 05:18:40;;;;;;;;;;;;;;;;;;4986131;28;19926;-65
2022/03/08 05:21:06;;;;;;;;;;;;;;;;;;4995915;28;19934;-65
2022/03/08 05:23:32;;;;;;;;;;;;;;;;;;5004724;28;20446;-65
2022/03/08 05:25:58;;;;;;;;;;;;;;;;;;5004214;28;19980;-65
2022/03/08 05:28:24;;;;;;;;;;;;;;;;;;5003639;28;20391;-65
2022/03/08 05:30:51;;;;;;;;;;;;;;;;;;4994464;28;19968;-65
2022/03/08 05:33:17;;;;;;;;;;;;;;;;;;4985804;28;19926;-65
2022/03/08 05:35:43;;;;;;;;;;;;;;;;;;4986295;28;19953;-65
2022/03/08 05:38:09;;;;;;;;;;;;;;;;;;4997103;28;20626;-66
2022/03/08 05:40:35;;;;;;;;;;;;;;;;;;4993379;28;20020;-65
2022/03/08 05:43:01;;;;;;;;;;;;;;;;;;5003816;28;20012;-65
2022/03/08 05:45:27;;;;;;;;;;;;;;;;;;5004066;28;19925;-65
2022/03/08 05:47:53;;;;;;;;;;;;;;;;;;4996300;28;19930;-65
2022/03/08 05:50:19;;;;;;;;;;;;;;;;;;5004651;28;19925;-65
2022/03/08 05:52:45;;;;;;;;;;;;;;;;;;4986556;28;20335;-65
2022/03/08 05:55:11;;;;;;;;;;;;;;;;;;4986578;28;19941;-66
2022/03/08 05:57:37;;;;;;;;;;;;;;;;;;5004157;28;19926;-65
2022/03/08 06:00:03;;;;;;;;;;;;;;;;;;4984773;28;19926;-65
2022/03/08 06:02:29;;;;;;;;;;;;;;;;;;5003269;28;19925;-66
2022/03/08 06:04:55;;;;;;;;;;;;;;;;;;5003296;28;20387;-67
2022/03/08 06:07:21;;;;;;;;;;;;;;;;;;5006506;28;19925;-66
2022/03/08 06:09:47;;;;;;;;;;;;;;;;;;4979721;28;20395;-66
2022/03/08 06:12:14;;;;;;;;;;;;;;;;;;4989748;28;20008;-66
2022/03/08 06:14:40;;;;;;;;;;;;;;;;;;5005701;28;19928;-66
2022/03/08 06:17:07;;;;;;;;;;;;;;;;;;5007367;28;20365;-68
2022/03/08 06:19:33;;;;;;;;;;;;;;;;;;5001877;28;20837;-65
2022/03/08 06:21:59;;;;;;;;;;;;;;;;;;4990012;28;19932;-67
2022/03/08 06:24:25;;;;;;;;;;;;;;;;;;4990725;28;20012;-67
2022/03/08 06:26:51;;;;;;;;;;;;;;;;;;4989268;28;19932;-67
2022/03/08 06:29:17;;;;;;;;;;;;;;;;;;4988380;28;19925;-67
2022/03/08 06:31:43;;;;;;;;;;;;;;;;;;4989131;28;20781;-67
2022/03/08 06:34:09;;;;;;;;;;;;;;;;;;4999639;28;19979;-67
2022/03/08 06:36:36;;;;;;;;;;;;;;;;;;5002653;28;19925;-66
2022/03/08 06:39:02;;;;;;;;;;;;;;;;;;4980516;28;19925;-66
2022/03/08 06:41:28;;;;;;;;;;;;;;;;;;4995117;28;19933;-66
2022/03/08 06:43:54;;;;;;;;;;;;;;;;;;4982034;28;19933;-66
2022/03/08 06:46:20;;;;;;;;;;;;;;;;;;4989607;28;20317;-66
2022/03/08 06:48:46;;;;;;;;;;;;;;;;;;4994262;28;19969;-66
2022/03/08 06:51:14;;;;;;;;;;;;;;;;;;4992396;28;20389;-67
2022/03/08 06:53:40;;;;;;;;;;;;;;;;;;4987859;28;19926;-66
2022/03/08 06:56:06;;;;;;;;;;;;;;;;;;4987591;28;20017;-66
2022/03/08 06:58:32;;;;;;;;;;;;;;;;;;4987704;28;20005;-66
2022/03/08 07:00:58;;;;;;;;;;;;;;;;;;4987951;28;19926;-67
2022/03/08 07:03:24;;;;;;;;;;;;;;;;;;4987760;28;20036;-66
2022/03/08 07:05:49;;;;;;;;;;;;;;;;;;4985891;28;19932;-67
2022/03/08 07:08:16;;;;;;;;;;;;;;;;;;4987519;28;19937;-66
2022/03/08 07:10:42;;;;;;;;;;;;;;;;;;4987473;28;19926;-67
2022/03/08 07:13:08;;;;;;;;;;;;;;;;;;4986860;28;19918;-66
2022/03/08 07:15:34;;;;;;;;;;;;;;;;;;4987434;28;20479;-66
2022/03/08 07:18:00;;;;;;;;;;;;;;;;;;4986500;28;19980;-66
2022/03/08 07:20:26;;;;;;;;;;;;;;;;;;4986962;28;19926;-65
2022/03/08 07:22:52;;;;;;;;;;;;;;;;;;4987513;28;19948;-67
2022/03/08 07:25:18;;;;;;;;;;;;;;;;;;4987039;28;20233;-66
2022/03/08 07:27:44;;;;;;;;;;;;;;;;;;4986615;28;19930;-66
2022/03/08 07:30:10;;;;;;;;;;;;;;;;;;4987179;28;19972;-66
2022/03/08 07:32:36;;;;;;;;;;;;;;;;;;4987349;28;19930;-66
2022/03/08 07:35:02;;;;;;;;;;;;;;;;;;4987030;28;19979;-66
2022/03/08 07:37:28;;;;;;;;;;;;;;;;;;4987154;28;20463;-66
2022/03/08 07:39:55;;;;;;;;;;;;;;;;;;4987207;28;20017;-65
2022/03/08 07:42:21;;;;;;;;;;;;;;;;;;4987255;28;19948;-66
2022/03/08 07:44:47;;;;;;;;;;;;;;;;;;4986193;28;19973;-65
2022/03/08 07:47:13;;;;;;;;;;;;;;;;;;4986625;28;19929;-65
2022/03/08 07:49:39;;;;;;;;;;;;;;;;;;4969274;28;19973;-65
2022/03/08 07:52:05;;;;;;;;;;;;;;;;;;4986625;28;20009;-66
2022/03/08 07:54:31;;;;;;;;;;;;;;;;;;4987045;28;20057;-65
2022/03/08 07:56:57;;;;;;;;;;;;;;;;;;4986525;28;20409;-65
2022/03/08 07:59:23;;;;;;;;;;;;;;;;;;4984767;28;20286;-65
2022/03/08 08:01:49;;;;;;;;;;;;;;;;;;4986155;28;20307;-65
2022/03/08 08:04:15;;;;;;;;;;;;;;;;;;4986565;28;19932;-64
2022/03/08 08:06:41;;;;;;;;;;;;;;;;;;4987070;28;20076;-65
2022/03/08 08:09:07;;;;;;;;;;;;;;;;;;4986483;28;19932;-65
2022/03/08 08:11:33;;;;;;;;;;;;;;;;;;4986626;28;20024;-65
2022/03/08 08:13:59;;;;;;;;;;;;;;;;;;4985939;28;20021;-64
2022/03/08 08:16:25;;;;;;;;;;;;;;;;;;4985869;28;19947;-65
2022/03/08 08:18:51;;;;;;;;;;;;;;;;;;4986495;28;19925;-65
2022/03/08 08:21:17;;;;;;;;;;;;;;;;;;4969084;28;19930;-65
2022/03/08 08:23:43;;;;;;;;;;;;;;;;;;4986530;28;19965;-65
2022/03/08 08:26:09;;;;;;;;;;;;;;;;;;4986305;28;19961;-65
2022/03/08 08:28:35;;;;;;;;;;;;;;;;;;4967818;28;19932;-65
2022/03/08 08:31:01;;;;;;;;;;;;;;;;;;4985587;28;19926;-64
2022/03/08 08:33:27;;;;;;;;;;;;;;;;;;4986470;28;20275;-64
2022/03/08 08:35:55;;;;;;;;;;;;;;;;;;4986172;28;19926;-64
2022/03/08 08:38:21;;;;;;;;;;;;;;;;;;4986333;28;19926;-64
2022/03/08 08:40:47;;;;;;;;;;;;;;;;;;4985977;28;19949;-64
2022/03/08 08:43:13;;;;;;;;;;;;;;;;;;4984976;28;20414;-64
2022/03/08 08:45:39;;;;;;;;;;;;;;;;;;4986023;28;19925;-64
2022/03/08 08:48:05;;;;;;;;;;;;;;;;;;4985704;28;19925;-63
2022/03/08 08:50:31;;;;;;;;;;;;;;;;;;4986259;28;19953;-63
2022/03/08 08:52:57;;;;;;;;;;;;;;;;;;4985914;28;19925;-63
2022/03/08 08:55:23;;;;;;;;;;;;;;;;;;4986075;28;19975;-63
2022/03/08 08:57:49;;;;;;;;;;;;;;;;;;4984996;28;20479;-63
2022/03/08 09:00:15;;;;;;;;;;;;;;;;;;4985714;28;19932;-62
2022/03/08 09:02:43;;;;;;;;;;;;;;;;;;4985635;28;19941;-62
2022/03/08 09:05:09;;;;;;;;;;;;;;;;;;4985659;28;19929;-62
2022/03/08 09:07:35;;;;;;;;;;;;;;;;;;4985720;28;20442;-62
2022/03/08 09:10:01;;;;;;;;;;;;;;;;;;4968641;28;20325;-62
2022/03/08 09:12:28;;;;;;;;;;;;;;;;;;4984560;28;19926;-62
2022/03/08 09:14:54;;;;;;;;;;;;;;;;;;4985483;28;20327;-62
2022/03/08 09:17:29;;;;;;;;;;;;;;;;;;4985844;28;19914;-62
2022/03/08 09:19:55;;;;;;;;;;;;;;;;;;4985391;28;19926;-64
2022/03/08 09:22:21;;;;;;;;;;;;;;;;;;4985693;28;19948;-63
2022/03/08 09:24:47;;;;;;;;;;;;;;;;;;4985342;28;19930;-63
2022/03/08 09:27:14;;;;;;;;;;;;;;;;;;4985421;28;20578;-64
2022/03/08 09:29:40;;;;;;;;;;;;;;;;;;4984812;28;19960;-64
2022/03/08 09:32:06;;;;;;;;;;;;;;;;;;4985104;28;19929;-64
2022/03/08 09:34:32;;;;;;;;;;;;;;;;;;4986052;28;20288;-63
2022/03/08 09:36:58;;;;;;;;;;;;;;;;;;4985726;28;19988;-63
2022/03/08 09:39:24;;;;;;;;;;;;;;;;;;4985069;28;20411;-62
2022/03/08 09:41:53;;;;;;;;;;;;;;;;;;4987167;28;20029;-62
2022/03/08 09:44:19;;;;;;;;;;;;;;;;;;4988803;28;19925;-62
2022/03/08 09:46:45;;;;;;;;;;;;;;;;;;4989261;28;20395;-62
2022/03/08 09:49:11;;;;;;;;;;;;;;;;;;4988976;28;19929;-62
2022/03/08 09:51:38;;;;;;;;;;;;;;;;;;4988544;28;19980;-62
2022/03/08 09:54:04;;;;;;;;;;;;;;;;;;4971264;28;19930;-62
2022/03/08 09:56:30;;;;;;;;;;;;;;;;;;4989520;28;19930;-62
2022/03/08 09:58:55;;;;;;;;;;;;;;;;;;4987748;28;19926;-62
2022/03/08 10:01:21;;;;;;;;;;;;;;;;;;4988857;28;19926;-62
2022/03/08 10:03:47;;;;;;;;;;;;;;;;;;4988696;28;19973;-62
2022/03/08 10:06:14;;;;;;;;;;;;;;;;;;4988115;28;19930;-62
2022/03/08 10:08:40;;;;;;;;;;;;;;;;;;4988914;28;19949;-62
2022/03/08 10:11:06;;;;;;;;;;;;;;;;;;4988776;28;20419;-62
2022/03/08 10:13:33;;;;;;;;;;;;;;;;;;4988322;28;19928;-62
2022/03/08 10:15:59;;;;;;;;;;;;;;;;;;4988498;28;19932;-62
2022/03/08 10:18:25;;;;;;;;;;;;;;;;;;4988497;28;19933;-62
2022/03/08 10:20:51;;;;;;;;;;;;;;;;;;4988692;28;19926;-62
2022/03/08 10:23:17;;;;;;;;;;;;;;;;;;4988272;28;19926;-63
2022/03/08 10:25:43;;;;;;;;;;;;;;;;;;4988525;28;20376;-64
2022/03/08 10:28:09;;;;;;;;;;;;;;;;;;4987572;28;19933;-64
2022/03/08 10:30:35;;;;;;;;;;;;;;;;;;4987849;28;19932;-63
2022/03/08 10:33:01;;;;;;;;;;;;;;;;;;4988348;28;19926;-62
2022/03/08 10:35:27;;;;;;;;;;;;;;;;;;4988296;28;19926;-62
2022/03/08 10:37:53;;;;;;;;;;;;;;;;;;4988004;28;20011;-62
2022/03/08 10:40:19;;;;;;;;;;;;;;;;;;4988334;28;20406;-62
2022/03/08 10:42:45;;;;;;;;;;;;;;;;;;4987401;28;19926;-62
2022/03/08 10:45:11;;;;;;;;;;;;;;;;;;4988040;28;19930;-62
2022/03/08 10:47:37;;;;;;;;;;;;;;;;;;4987506;28;19926;-62
2022/03/08 10:50:03;;;;;;;;;;;;;;;;;;4987779;28;19972;-63
2022/03/08 10:52:29;;;;;;;;;;;;;;;;;;4987868;28;19976;-62
2022/03/08 10:54:55;;;;;;;;;;;;;;;;;;4987881;28;19969;-62
2022/03/08 10:57:21;;;;;;;;;;;;;;;;;;4987381;28;19948;-62
2022/03/08 10:59:47;;;;;;;;;;;;;;;;;;4988192;28;19926;-62
2022/03/08 11:02:13;;;;;;;;;;;;;;;;;;4987100;28;20719;-62
2022/03/08 11:04:39;;;;;;;;;;;;;;;;;;4987904;28;19937;-62
2022/03/08 11:07:05;;;;;;;;;;;;;;;;;;4986148;28;19926;-63
2022/03/08 11:09:32;;;;;;;;;;;;;;;;;;4988254;28;19918;-62
2022/03/08 11:11:58;;;;;;;;;;;;;;;;;;4987825;28;19925;-62
2022/03/08 11:14:24;;;;;;;;;;;;;;;;;;4986904;28;19922;-62
2022/03/08 11:16:51;;;;;;;;;;;;;;;;;;4987246;28;19949;-63
2022/03/08 11:19:18;;;;;;;;;;;;;;;;;;4987598;28;19925;-62
2022/03/08 11:21:44;;;;;;;;;;;;;;;;;;4988175;28;19926;-62
2022/03/08 11:24:10;;;;;;;;;;;;;;;;;;4988006;28;19932;-62
2022/03/08 11:26:36;;;;;;;;;;;;;;;;;;4987929;28;19973;-62
2022/03/08 11:29:03;;;;;;;;;;;;;;;;;;4986768;28;19979;-62
2022/03/08 11:31:29;;;;;;;;;;;;;;;;;;4988114;28;19961;-62
2022/03/08 11:33:58;;;;;;;;;;;;;;;;;;4987705;28;19996;-62
2022/03/08 11:36:24;;;;;;;;;;;;;;;;;;4988023;28;19937;-62
2022/03/08 11:38:50;;;;;;;;;;;;;;;;;;4970223;28;19933;-62
2022/03/08 11:41:16;;;;;;;;;;;;;;;;;;4987565;28;19973;-62
2022/03/08 11:43:42;;;;;;;;;;;;;;;;;;4986743;28;19973;-62
2022/03/08 11:46:08;;;;;;;;;;;;;;;;;;4987612;28;20905;-62
2022/03/08 11:48:34;;;;;;;;;;;;;;;;;;4987825;28;20482;-62
2022/03/08 11:51:01;;;;;;;;;;;;;;;;;;4987868;28;19926;-62
2022/03/08 11:53:26;;;;;;;;;;;;;;;;;;4986888;28;20000;-61
2022/03/08 11:55:56;;;;;;;;;;;;;;;;;;4986620;28;20017;-62
2022/03/08 11:58:22;;;;;;;;;;;;;;;;;;4968948;28;20368;-62
2022/03/08 12:00:50;;;;;;;;;;;;;;;;;;4986179;28;21304;-62
2022/03/08 12:03:16;;;;;;;;;;;;;;;;;;4986560;28;20013;-62
2022/03/08 12:05:42;;;;;;;;;;;;;;;;;;4986386;28;19953;-62
2022/03/08 12:08:08;;;;;;;;;;;;;;;;;;4985854;28;20363;-62
2022/03/08 12:10:34;;;;;;;;;;;;;;;;;;4984740;28;20419;-62
2022/03/08 12:13:00;;;;;;;;;;;;;;;;;;4986077;28;19933;-62
2022/03/08 12:15:26;;;;;;;;;;;;;;;;;;4986320;28;19917;-62
2022/03/08 12:17:52;;;;;;;;;;;;;;;;;;4986576;28;20487;-62
2022/03/08 12:20:18;;;;;;;;;;;;;;;;;;4988791;28;20456;-62
2022/03/08 12:22:44;;;;;;;;;;;;;;;;;;4990238;28;20020;-62
2022/03/08 12:25:10;;;;;;;;;;;;;;;;;;4985203;28;20005;-62
2022/03/08 12:27:36;;;;;;;;;;;;;;;;;;4985613;28;19925;-62
2022/03/08 12:30:02;;;;;;;;;;;;;;;;;;4986936;28;19932;-62
2022/03/08 12:32:28;;;;;;;;;;;;;;;;;;4986117;28;20292;-61
2022/03/08 12:34:54;;;;;;;;;;;;;;;;;;4985933;28;20375;-62
2022/03/08 12:37:20;;;;;;;;;;;;;;;;;;4985762;28;19918;-62
2022/03/08 12:39:46;;;;;;;;;;;;;;;;;;4984596;28;19926;-61
2022/03/08 12:42:12;;;;;;;;;;;;;;;;;;4985010;28;19961;-62
2022/03/08 12:44:38;;;;;;;;;;;;;;;;;;4986497;28;19929;-61
2022/03/08 12:47:04;;;;;;;;;;;;;;;;;;4986507;28;19972;-62
2022/03/08 12:49:30;;;;;;;;;;;;;;;;;;4986206;28;20376;-62
2022/03/08 12:51:57;;;;;;;;;;;;;;;;;;4986089;28;19937;-62
2022/03/08 12:54:23;;;;;;;;;;;;;;;;;;4985844;28;19926;-62
2022/03/08 12:56:49;;;;;;;;;;;;;;;;;;4985811;28;20017;-62
2022/03/08 12:59:15;;;;;;;;;;;;;;;;;;4985681;28;20014;-62
2022/03/08 13:01:41;;;;;;;;;;;;;;;;;;4986272;28;20025;-62
2022/03/08 13:04:07;;;;;;;;;;;;;;;;;;4985898;28;19937;-62
2022/03/08 13:06:34;;;;;;;;;;;;;;;;;;4985944;28;19926;-62
2022/03/08 13:09:00;;;;;;;;;;;;;;;;;;4968704;28;19926;-62
2022/03/08 13:11:26;;;;;;;;;;;;;;;;;;4986157;28;19965;-62
2022/03/08 13:13:52;;;;;;;;;;;;;;;;;;4985292;28;20430;-62
2022/03/08 13:16:18;;;;;;;;;;;;;;;;;;4987834;28;20008;-62
2022/03/08 13:18:44;;;;;;;;;;;;;;;;;;4989961;28;20295;-62
2022/03/08 13:21:11;;;;;;;;;;;;;;;;;;4989015;28;20404;-62
2022/03/08 13:23:40;;;;;;;;;;;;;;;;;;4990180;28;20006;-62
2022/03/08 13:26:06;;;;;;;;;;;;;;;;;;4993849;28;19929;-62
2022/03/08 13:28:32;;;;;;;;;;;;;;;;;;5005899;28;20333;-62
2022/03/08 13:30:58;;;;;;;;;;;;;;;;;;5004996;28;19930;-62
2022/03/08 13:33:24;;;;;;;;;;;;;;;;;;4989483;28;19968;-63
2022/03/08 13:35:50;;;;;;;;;;;;;;;;;;4989208;28;19922;-63
2022/03/08 13:38:16;;;;;;;;;;;;;;;;;;5000169;28;19929;-64
2022/03/08 13:40:42;;;;;;;;;;;;;;;;;;4990015;28;20001;-64
2022/03/08 13:43:08;;;;;;;;;;;;;;;;;;4988917;28;20029;-63
2022/03/08 13:45:34;;;;;;;;;;;;;;;;;;4991143;28;19925;-64
2022/03/08 13:48:00;;;;;;;;;;;;;;;;;;4993018;28;19926;-64
2022/03/08 13:50:26;;;;;;;;;;;;;;;;;;4989411;28;19926;-64
2022/03/08 13:52:52;;;;;;;;;;;;;;;;;;4989598;28;19929;-64
2022/03/08 13:55:18;;;;;;;;;;;;;;;;;;4993314;28;19933;-63
2022/03/08 13:57:44;;;;;;;;;;;;;;;;;;4988863;28;19929;-63
2022/03/08 14:00:10;;;;;;;;;;;;;;;;;;5007729;28;19932;-64
2022/03/08 14:02:36;;;;;;;;;;;;;;;;;;5007928;28;19925;-64
2022/03/08 14:05:02;;;;;;;;;;;;;;;;;;5005324;28;19926;-64
2022/03/08 14:07:28;;;;;;;;;;;;;;;;;;4989115;28;20334;-64
2022/03/08 14:09:55;;;;;;;;;;;;;;;;;;4993473;28;19926;-64
2022/03/08 14:12:21;;;;;;;;;;;;;;;;;;5007435;28;19917;-64
2022/03/08 14:14:47;;;;;;;;;;;;;;;;;;4995367;28;20060;-63
2022/03/08 14:17:13;;;;;;;;;;;;;;;;;;5006736;28;20015;-63
2022/03/08 14:19:39;;;;;;;;;;;;;;;;;;5007497;28;20413;-64
2022/03/08 14:22:05;;;;;;;;;;;;;;;;;;4996073;28;19925;-64
2022/03/08 14:24:31;;;;;;;;;;;;;;;;;;4990828;28;20039;-63
2022/03/08 14:26:57;;;;;;;;;;;;;;;;;;5005210;28;19973;-63
2022/03/08 14:29:23;;;;;;;;;;;;;;;;;;5007699;28;19925;-63
2022/03/08 14:31:49;;;;;;;;;;;;;;;;;;5006624;28;20390;-64
2022/03/08 14:34:16;;;;;;;;;;;;;;;;;;5005473;28;19925;-64
2022/03/08 14:36:42;;;;;;;;;;;;;;;;;;4989140;28;19926;-64
2022/03/08 14:39:08;;;;;;;;;;;;;;;;;;5003448;28;19926;-64
2022/03/08 14:41:34;;;;;;;;;;;;;;;;;;4988774;28;19926;-64
2022/03/08 14:44:00;;;;;;;;;;;;;;;;;;4989386;28;19925;-64
2022/03/08 14:46:26;;;;;;;;;;;;;;;;;;4988652;28;19921;-64
2022/03/08 14:48:52;;;;;;;;;;;;;;;;;;4988232;28;20280;-64
2022/03/08 14:51:18;;;;;;;;;;;;;;;;;;4987768;28;19938;-64
2022/03/08 14:53:44;;;;;;;;;;;;;;;;;;4986137;28;20012;-64
2022/03/08 14:56:10;;;;;;;;;;;;;;;;;;4993094;28;20365;-64
2022/03/08 14:58:36;;;;;;;;;;;;;;;;;;4989329;28;19925;-64
2022/03/08 15:01:03;;;;;;;;;;;;;;;;;;4996224;28;19929;-64
2022/03/08 15:03:29;;;;;;;;;;;;;;;;;;5002762;28;19943;-64
2022/03/08 15:05:55;;;;;;;;;;;;;;;;;;4969519;28;19951;-64
2022/03/08 15:08:21;;;;;;;;;;;;;;;;;;5001015;28;19929;-63
2022/03/08 15:10:47;;;;;;;;;;;;;;;;;;4985443;28;19933;-64
2022/03/08 15:13:13;;;;;;;;;;;;;;;;;;4984975;28;19945;-64
2022/03/08 15:15:39;;;;;;;;;;;;;;;;;;5001929;28;19925;-64
2022/03/08 15:18:05;;;;;;;;;;;;;;;;;;5003900;28;19926;-63
2022/03/08 15:20:31;;;;;;;;;;;;;;;;;;5004018;28;20208;-63
2022/03/08 15:22:57;;;;;;;;;;;;;;;;;;5003665;28;19930;-63
2022/03/08 15:25:25;;;;;;;;;;;;;;;;;;4971148;28;20016;-63
2022/03/08 15:27:53;;;;;;;;;;;;;;;;;;4984401;28;20012;-63
2022/03/08 15:30:20;;;;;;;;;;;;;;;;;;4990316;28;20402;-63
2022/03/08 15:32:46;;;;;;;;;;;;;;;;;;4987055;28;20019;-63
2022/03/08 15:35:12;;;;;;;;;;;;;;;;;;4984863;28;19976;-63
2022/03/08 15:37:38;;;;;;;;;;;;;;;;;;5003119;28;20024;-63
2022/03/08 15:40:04;;;;;;;;;;;;;;;;;;5002040;28;20653;-64
2022/03/08 15:42:30;;;;;;;;;;;;;;;;;;4984304;28;19933;-64
2022/03/08 15:44:56;;;;;;;;;;;;;;;;;;4985015;28;20004;-63
2022/03/08 15:47:22;;;;;;;;;;;;;;;;;;4984328;28;20004;-63
2022/03/08 15:49:49;;;;;;;;;;;;;;;;;;4985205;28;20451;-64
2022/03/08 15:52:15;;;;;;;;;;;;;;;;;;5002835;28;19932;-64
2022/03/08 15:54:41;;;;;;;;;;;;;;;;;;5003945;28;19940;-63
2022/03/08 15:57:07;;;;;;;;;;;;;;;;;;5002256;28;19930;-63
2022/03/08 15:59:33;;;;;;;;;;;;;;;;;;5002995;28;19925;-63
2022/03/08 16:01:59;;;;;;;;;;;;;;;;;;4984114;28;19930;-64
2022/03/08 16:04:25;;;;;;;;;;;;;;;;;;4986409;28;20295;-63
2022/03/08 16:06:51;;;;;;;;;;;;;;;;;;5001855;28;19988;-64
2022/03/08 16:09:17;;;;;;;;;;;;;;;;;;5003056;28;19921;-64
2022/03/08 16:11:43;;;;;;;;;;;;;;;;;;5001995;28;19937;-64
2022/03/08 16:14:09;;;;;;;;;;;;;;;;;;4997307;28;19937;-63
2022/03/08 16:16:37;;;;;;;;;;;;;;;;;;4987692;28;20789;-63
2022/03/08 16:19:04;;;;;;;;;;;;;;;;;;4987253;28;19929;-63
2022/03/08 16:21:30;;;;;;;;;;;;;;;;;;4998521;28;19929;-63
2022/03/08 16:23:56;;;;;;;;;;;;;;;;;;4984446;28;20024;-63
2022/03/08 16:26:22;;;;;;;;;;;;;;;;;;4982662;28;20407;-63
2022/03/08 16:28:48;;;;;;;;;;;;;;;;;;5002872;28;19925;-63
2022/03/08 16:31:14;;;;;;;;;;;;;;;;;;4986162;28;19938;-63
2022/03/08 16:33:40;;;;;;;;;;;;;;;;;;4985663;28;19926;-63
2022/03/08 16:39:09;;;;;;;;;;;;;;;;;;4746415;28;19937;-63
2022/03/08 16:41:36;;;;;;;;;;;;;;;;;;4967341;28;19930;-63